Time;durP1;ratioP1;P1;durP2;ratioP2;P2;SDS_P1;SDS_P2;PMS_P1;PMS_P2;Temp;Humidity;BMP_temperature;BMP_pressure;BME280_temperature;BME280_humidity;BME280_pressure;Samples;Min_cycle;Max_cycle;Signal;HPM_P1;HPM_P2
2023/04/14 00:00:56;;;;;;;14.60;8.15;;;;;;;6.41;71.15;100737.75;5094605;28;20459;-59
2023/04/14 00:03:21;;;;;;;13.88;9.60;;;;;;;6.29;71.10;100737.38;5095221;28;20469;-59
2023/04/14 00:05:47;;;;;;;12.57;8.55;;;;;;;6.34;71.26;100731.91;5095085;28;20031;-59
2023/04/14 00:08:12;;;;;;;16.73;9.68;;;;;;;6.22;70.92;100727.22;5095052;28;20063;-58
2023/04/14 00:10:37;;;;;;;12.82;9.27;;;;;;;6.01;72.51;100718.50;5076476;28;20069;-58
2023/04/14 00:13:03;;;;;;;10.93;9.05;;;;;;;6.00;72.57;100720.28;5093616;28;20461;-59
2023/04/14 00:15:28;;;;;;;16.55;10.00;;;;;;;5.99;72.05;100718.56;5094405;28;20027;-58
2023/04/14 00:17:54;;;;;;;11.07;8.50;;;;;;;6.11;72.24;100722.41;5094971;28;20032;-58
2023/04/14 00:20:21;;;;;;;14.68;10.07;;;;;;;6.09;72.47;100722.50;5093343;28;20409;-59
2023/04/14 00:22:49;;;;;;;11.13;7.80;;;;;;;6.11;72.77;100731.19;5094482;28;20027;-59
2023/04/14 00:25:15;;;;;;;14.20;9.65;;;;;;;6.00;72.00;100736.13;5113277;28;20436;-59
2023/04/14 00:27:40;;;;;;;13.73;9.02;;;;;;;6.10;72.36;100726.84;5112710;28;20060;-58
2023/04/14 00:30:06;;;;;;;13.75;9.30;;;;;;;5.84;73.27;100737.72;5100109;28;20085;-58
2023/04/14 00:32:32;;;;;;;16.50;8.90;;;;;;;5.94;73.22;100733.75;5096028;28;20073;-59
2023/04/14 00:34:59;;;;;;;14.98;8.63;;;;;;;5.90;73.11;100737.44;5094120;28;20073;-58
2023/04/14 00:37:24;;;;;;;16.17;9.88;;;;;;;5.75;73.96;100733.69;5094400;28;20030;-59
2023/04/14 00:39:50;;;;;;;13.02;9.43;;;;;;;5.82;74.44;100736.91;5094080;28;20020;-59
2023/04/14 00:42:15;;;;;;;14.40;9.32;;;;;;;5.79;73.48;100735.25;5094144;28;20028;-59
2023/04/14 00:44:40;;;;;;;13.43;9.70;;;;;;;5.82;73.64;100735.13;5094330;28;20097;-58
2023/04/14 00:47:06;;;;;;;17.42;9.95;;;;;;;5.81;73.34;100735.22;5093727;28;20030;-59
2023/04/14 00:49:31;;;;;;;12.93;9.68;;;;;;;5.87;73.83;100737.56;5094530;28;20023;-59
2023/04/14 00:51:57;;;;;;;14.85;9.45;;;;;;;5.85;73.72;100736.78;5092829;28;20020;-58
2023/04/14 00:54:24;;;;;;;14.32;10.00;;;;;;;5.74;73.73;100736.44;5093463;28;20157;-59
2023/04/14 00:56:50;;;;;;;18.63;9.10;;;;;;;5.85;74.16;100739.41;5093471;28;20461;-58
2023/04/14 00:59:16;;;;;;;13.88;9.95;;;;;;;5.73;73.34;100739.97;5092903;28;20047;-58
2023/04/14 01:01:42;;;;;;;12.15;8.68;;;;;;;5.70;73.99;100741.81;5091800;28;20036;-58
2023/04/14 01:04:08;;;;;;;14.25;9.82;;;;;;;5.72;73.63;100735.63;5093902;28;20020;-58
2023/04/14 01:06:33;;;;;;;17.80;10.05;;;;;;;5.74;73.54;100747.84;5093592;28;20024;-58
2023/04/14 01:08:59;;;;;;;18.15;10.85;;;;;;;5.60;75.17;100750.22;5093132;28;20514;-58
2023/04/14 01:11:34;;;;;;;14.70;9.25;;;;;;;5.62;75.22;100762.44;5093629;28;20031;-58
2023/04/14 01:14:16;;;;;;;13.23;9.77;;;;;;;5.66;74.55;100757.88;5093858;28;20446;-58
2023/04/14 01:16:49;;;;;;;13.80;9.68;;;;;;;5.55;74.96;100766.25;5093199;28;20024;-59
2023/04/14 01:19:56;;;;;;;15.38;9.98;;;;;;;5.51;74.76;100766.47;5093545;28;20020;-58
2023/04/14 01:22:29;;;;;;;14.32;9.70;;;;;;;5.52;75.34;100765.53;5093121;28;20233;-58
2023/04/14 01:25:01;;;;;;;13.20;8.95;;;;;;;5.51;75.22;100761.19;5073289;28;20472;-58
2023/04/14 01:27:32;;;;;;;15.45;11.90;;;;;;;5.35;74.91;100759.19;5077376;28;20016;-58
2023/04/14 01:30:01;;;;;;;15.95;10.45;;;;;;;5.44;75.12;100760.56;5092418;28;20028;-58
2023/04/14 01:32:30;;;;;;;16.15;11.05;;;;;;;5.19;75.35;100735.25;5092889;28;20061;-58
2023/04/14 01:34:59;;;;;;;10.48;8.68;;;;;;;5.41;75.47;100758.06;5093335;28;20030;-58
2023/04/14 01:37:42;;;;;;;12.80;9.97;;;;;;;5.35;76.11;100761.81;5094770;28;20046;-58
2023/04/14 01:40:12;;;;;;;14.77;12.38;;;;;;;5.18;76.04;100766.97;5092456;28;20401;-58
2023/04/14 01:42:48;;;;;;;11.07;8.13;;;;;;;5.24;75.61;100770.22;5093176;28;20024;-59
2023/04/14 01:45:25;;;;;;;15.50;11.10;;;;;;;4.86;76.93;100770.94;5108627;28;20117;-59
2023/04/14 01:47:52;;;;;;;7.97;7.18;;;;;;;5.01;77.13;100760.63;5110939;28;20030;-58
2023/04/14 01:50:20;;;;;;;15.95;11.85;;;;;;;4.73;77.93;100773.19;5100890;28;20031;-58
2023/04/14 01:52:50;;;;;;;11.30;7.50;;;;;;;4.97;77.43;100774.84;5093148;28;20379;-59
2023/04/14 01:55:18;;;;;;;17.13;11.13;;;;;;;4.76;77.73;100780.97;5092856;28;20042;-58
2023/04/14 01:57:47;;;;;;;15.85;11.23;;;;;;;4.98;78.02;100775.69;5103740;28;20048;-59
2023/04/14 02:00:15;;;;;;;13.98;9.43;;;;;;;4.98;77.69;100787.09;5094037;28;20046;-59
2023/04/14 02:02:43;;;;;;;11.57;9.90;;;;;;;5.04;77.01;100778.09;5110606;28;20425;-59
2023/04/14 02:05:09;;;;;;;14.40;10.60;;;;;;;4.78;78.40;100785.25;5112734;28;20023;-58
2023/04/14 02:07:36;;;;;;;14.15;7.53;;;;;;;4.95;78.13;100779.31;5111683;28;20041;-59
2023/04/14 02:10:07;;;;;;;12.60;10.40;;;;;;;4.82;78.15;100785.13;5104824;28;20419;-59
2023/04/14 02:12:35;;;;;;;12.13;9.27;;;;;;;4.95;77.99;100783.75;5100164;28;20119;-59
2023/04/14 02:15:01;;;;;;;14.10;10.32;;;;;;;4.79;78.03;100775.56;5111383;28;20055;-59
2023/04/14 02:17:27;;;;;;;13.18;9.00;;;;;;;4.91;78.10;100784.75;5110657;28;20394;-58
2023/04/14 02:19:54;;;;;;;10.85;9.15;;;;;;;4.98;77.52;100791.53;5076010;28;20039;-59
2023/04/14 02:22:20;;;;;;;11.32;9.18;;;;;;;4.91;78.62;100790.03;5111650;28;20103;-58
2023/04/14 02:24:46;;;;;;;14.10;10.70;;;;;;;4.75;78.71;100790.66;5111325;28;20107;-58
2023/04/14 02:27:17;;;;;;;10.75;7.70;;;;;;;4.86;78.75;100786.75;5111277;28;20031;-58
2023/04/14 02:29:51;;;;;;;10.80;8.40;;;;;;;4.82;78.77;100788.63;5111446;28;20090;-58
2023/04/14 02:32:22;;;;;;;12.95;9.75;;;;;;;4.82;79.51;100779.88;5109474;28;20039;-58
2023/04/14 02:35:03;;;;;;;13.00;8.48;;;;;;;4.80;78.68;100787.00;5111265;28;20038;-59
2023/04/14 02:37:36;;;;;;;11.88;8.95;;;;;;;4.80;79.09;100789.63;5105020;28;20073;-58
2023/04/14 02:40:16;;;;;;;12.10;8.57;;;;;;;4.76;79.64;100778.34;5100053;28;20031;-58
2023/04/14 02:42:46;;;;;;;11.45;6.38;;;;;;;4.83;79.00;100790.38;5109769;28;20026;-58
2023/04/14 02:45:18;;;;;;;11.15;9.70;;;;;;;4.61;79.65;100794.75;5108099;28;20468;-58
2023/04/14 02:47:46;;;;;;;13.57;9.55;;;;;;;4.62;80.25;100804.38;5109465;28;20160;-59
2023/04/14 02:50:14;;;;;;;18.83;7.72;;;;;;;4.80;80.30;100801.03;5111095;28;20134;-59
2023/04/14 02:52:42;;;;;;;15.27;9.48;;;;;;;4.74;80.26;100801.28;5111280;28;20459;-59
2023/04/14 02:55:09;;;;;;;12.13;9.00;;;;;;;4.77;80.14;100802.00;5111283;28;20035;-58
2023/04/14 02:57:36;;;;;;;12.40;8.52;;;;;;;4.78;80.28;100792.31;5109841;28;20066;-59
2023/04/14 03:00:02;;;;;;;13.35;9.73;;;;;;;4.71;80.65;100796.97;5111134;28;20114;-59
2023/04/14 03:02:28;;;;;;;14.88;8.48;;;;;;;4.73;80.06;100795.13;5109532;28;20153;-58
2023/04/14 03:04:56;;;;;;;15.30;8.27;;;;;;;4.77;80.26;100798.50;5109762;28;20035;-58
2023/04/14 03:07:23;;;;;;;10.25;8.98;;;;;;;4.59;79.98;100804.47;5110736;28;20424;-59
2023/04/14 03:09:49;;;;;;;13.02;8.23;;;;;;;4.62;81.11;100807.88;5109828;28;20031;-58
2023/04/14 03:12:17;;;;;;;14.63;10.07;;;;;;;4.57;81.88;100806.34;5108389;28;20449;-58
2023/04/14 03:14:43;;;;;;;9.45;7.75;;;;;;;4.56;80.69;100802.84;5111086;28;20020;-58
2023/04/14 03:17:13;;;;;;;11.05;9.73;;;;;;;4.58;80.49;100810.69;5109935;28;20471;-58
2023/04/14 03:19:40;;;;;;;8.20;5.80;;;;;;;4.65;80.29;100807.75;5109755;28;20053;-59
2023/04/14 03:22:09;;;;;;;10.13;7.95;;;;;;;4.64;80.57;100802.53;5110547;28;20019;-58
2023/04/14 03:24:36;;;;;;;13.00;8.02;;;;;;;4.49;80.95;100804.00;5110961;28;20061;-58
2023/04/14 03:27:12;;;;;;;14.07;9.57;;;;;;;4.60;80.94;100804.44;5112564;28;20546;-58
2023/04/14 03:29:42;;;;;;;13.43;9.07;;;;;;;4.46;81.88;100807.59;5114808;28;20470;-58
2023/04/14 03:32:09;;;;;;;15.63;6.70;;;;;;;4.61;81.57;100807.94;5111481;28;20023;-59
2023/04/14 03:34:39;;;;;;;14.23;9.65;;;;;;;4.60;81.70;100809.72;5114956;28;20055;-59
2023/04/14 03:37:07;;;;;;;13.25;7.20;;;;;;;4.64;81.79;100795.50;5103809;28;20081;-59
2023/04/14 03:39:40;;;;;;;14.88;10.10;;;;;;;4.51;81.77;100815.34;5094053;28;20107;-59
2023/04/14 03:42:10;;;;;;;13.20;10.10;;;;;;;4.46;82.38;100817.28;5095158;28;20115;-58
2023/04/14 03:44:38;;;;;;;12.80;7.25;;;;;;;4.51;82.66;100815.34;5095666;28;20099;-58
2023/04/14 03:47:06;;;;;;;16.25;10.82;;;;;;;4.35;83.29;100814.19;5093657;28;20020;-58
2023/04/14 03:49:35;;;;;;;13.82;9.48;;;;;;;4.39;83.13;100815.81;5094448;28;20024;-58
2023/04/14 03:52:04;;;;;;;17.17;9.90;;;;;;;4.35;83.40;100808.94;5095453;28;20028;-58
2023/04/14 03:54:31;;;;;;;13.05;7.35;;;;;;;4.45;82.98;100805.03;5095356;28;20122;-59
2023/04/14 03:56:58;;;;;;;13.18;9.50;;;;;;;4.37;83.50;100809.72;5095151;28;20398;-58
2023/04/14 03:59:26;;;;;;;13.95;10.68;;;;;;;4.42;82.82;100806.00;5095338;28;20024;-58
2023/04/14 04:01:53;;;;;;;13.02;7.72;;;;;;;4.40;82.53;100809.63;5094540;28;20024;-58
2023/04/14 04:04:20;;;;;;;17.13;10.77;;;;;;;4.24;83.91;100819.88;5095198;28;20041;-58
2023/04/14 04:06:45;;;;;;;13.15;7.93;;;;;;;4.35;82.92;100814.19;5095185;28;20486;-59
2023/04/14 04:09:17;;;;;;;16.48;10.90;;;;;;;4.31;83.50;100826.63;5095431;28;20016;-59
2023/04/14 04:11:45;;;;;;;13.07;8.40;;;;;;;4.36;82.85;100821.19;5094940;28;20012;-58
2023/04/14 04:14:13;;;;;;;13.20;8.65;;;;;;;4.36;83.59;100821.19;5094744;28;20024;-59
2023/04/14 04:16:41;;;;;;;16.10;10.23;;;;;;;4.29;83.61;100818.78;5094302;28;20035;-58
2023/04/14 04:19:09;;;;;;;12.27;8.52;;;;;;;4.31;83.95;100818.72;5094785;28;20099;-58
2023/04/14 04:21:39;;;;;;;18.30;9.25;;;;;;;4.26;84.40;100816.25;5094691;28;20069;-58
2023/04/14 04:24:05;;;;;;;11.88;7.15;;;;;;;4.31;84.02;100803.78;5094891;28;20044;-58
2023/04/14 04:26:30;;;;;;;14.80;10.48;;;;;;;4.22;84.42;100816.44;5095084;28;20024;-58
2023/04/14 04:28:59;;;;;;;10.50;6.65;;;;;;;4.33;83.86;100820.38;5094660;28;20500;-58
2023/04/14 04:31:26;;;;;;;12.65;8.85;;;;;;;4.18;84.76;100818.31;5092225;28;20024;-59
2023/04/14 04:33:52;;;;;;;11.07;8.63;;;;;;;4.19;84.67;100812.13;5094454;28;20429;-58
2023/04/14 04:36:18;;;;;;;15.82;8.88;;;;;;;4.24;84.32;100822.50;5093870;28;20081;-58
2023/04/14 04:38:48;;;;;;;13.95;9.82;;;;;;;4.28;84.74;100826.72;5094004;28;20024;-58
2023/04/14 04:41:28;;;;;;;14.15;7.13;;;;;;;4.33;84.23;100833.53;5091878;28;20451;-58
2023/04/14 04:43:54;;;;;;;17.42;7.15;;;;;;;4.35;84.02;100830.84;5094389;28;20015;-58
2023/04/14 04:46:19;;;;;;;14.88;10.48;;;;;;;4.37;84.32;100826.38;5099077;28;20027;-58
2023/04/14 04:48:49;;;;;;;19.63;10.48;;;;;;;4.42;84.33;100823.59;5112533;28;20039;-58
2023/04/14 04:51:16;;;;;;;10.45;9.32;;;;;;;4.37;84.85;100822.91;5100873;28;20506;-59
2023/04/14 04:53:42;;;;;;;10.70;7.47;;;;;;;4.44;84.17;100833.16;5094057;28;20035;-58
2023/04/14 04:56:07;;;;;;;12.90;8.80;;;;;;;4.35;84.36;100824.72;5093627;28;20407;-59
2023/04/14 04:58:33;;;;;;;13.00;10.48;;;;;;;4.27;84.53;100828.50;5092586;28;20039;-59
2023/04/14 05:00:58;;;;;;;7.95;7.07;;;;;;;4.38;84.55;100832.50;5097796;28;20059;-58
2023/04/14 05:03:23;;;;;;;15.23;10.68;;;;;;;4.23;83.80;100821.63;5114306;28;20028;-58
2023/04/14 05:05:49;;;;;;;11.50;6.88;;;;;;;4.41;83.60;100829.75;5104582;28;20375;-58
2023/04/14 05:08:15;;;;;;;16.27;10.25;;;;;;;4.20;83.64;100807.72;5093833;28;20059;-58
2023/04/14 05:10:40;;;;;;;19.90;7.28;;;;;;;4.36;84.29;100829.09;5093576;28;20012;-59
2023/04/14 05:13:05;;;;;;;17.23;11.30;;;;;;;4.18;84.00;100810.44;5093517;28;20414;-58
2023/04/14 05:15:31;;;;;;;15.32;8.23;;;;;;;4.36;84.22;100829.09;5092120;28;20467;-58
2023/04/14 05:17:57;;;;;;;12.52;10.52;;;;;;;4.17;84.65;100823.63;5093705;28;20063;-58
2023/04/14 05:20:25;;;;;;;15.18;7.95;;;;;;;4.34;84.71;100826.50;5093291;28;20024;-58
2023/04/14 05:22:50;;;;;;;14.40;7.65;;;;;;;4.37;84.46;100828.16;5093623;28;20073;-58
2023/04/14 05:25:16;;;;;;;17.65;12.20;;;;;;;4.19;85.84;100822.66;5093424;28;20024;-58
2023/04/14 05:27:41;;;;;;;13.85;10.77;;;;;;;4.39;85.65;100826.34;5093431;28;20103;-58
2023/04/14 05:30:07;;;;;;;14.07;7.70;;;;;;;4.48;84.32;100828.63;5093520;28;20116;-59
2023/04/14 05:32:33;;;;;;;16.70;8.85;;;;;;;4.48;84.65;100823.34;5092905;28;20036;-58
2023/04/14 05:34:58;;;;;;;15.25;11.75;;;;;;;4.50;85.65;100822.38;5093522;28;20020;-58
2023/04/14 05:37:24;;;;;;;14.35;9.32;;;;;;;4.68;85.79;100831.34;5093708;28;20115;-58
2023/04/14 05:39:49;;;;;;;13.25;9.90;;;;;;;4.71;85.41;100828.59;5115900;27;20103;-59
2023/04/14 05:42:15;;;;;;;15.38;9.82;;;;;;;4.81;85.23;100836.13;5094421;28;20051;-58
2023/04/14 05:44:40;;;;;;;16.25;10.43;;;;;;;4.81;84.79;100833.50;5091929;28;20518;-58
2023/04/14 05:47:08;;;;;;;11.95;9.23;;;;;;;4.91;84.05;100827.81;5092350;28;20035;-58
2023/04/14 05:49:33;;;;;;;12.60;7.88;;;;;;;5.04;84.08;100829.94;5091716;28;20023;-59
2023/04/14 05:51:59;;;;;;;13.15;8.38;;;;;;;5.11;84.40;100828.75;5093140;28;20447;-59
2023/04/14 05:54:24;;;;;;;12.75;10.30;;;;;;;5.05;84.35;100808.78;5092769;28;20471;-58
2023/04/14 05:56:49;;;;;;;12.10;7.05;;;;;;;5.23;83.79;100826.50;5091170;28;20506;-58
2023/04/14 05:59:16;;;;;;;15.55;11.23;;;;;;;5.29;83.15;100822.72;5092855;28;20052;-58
2023/04/14 06:01:41;;;;;;;13.43;9.13;;;;;;;5.42;83.80;100831.84;5090776;28;20031;-58
2023/04/14 06:04:09;;;;;;;15.32;9.35;;;;;;;5.48;82.50;100830.75;5092672;28;20023;-58
2023/04/14 06:06:35;;;;;;;11.18;7.97;;;;;;;5.56;82.96;100835.69;5094384;28;20024;-58
2023/04/14 06:09:00;;;;;;;12.43;11.13;;;;;;;5.57;81.82;100840.91;5096772;28;20478;-58
2023/04/14 06:11:26;;;;;;;15.48;9.05;;;;;;;5.61;82.35;100839.84;5096250;28;20379;-58
2023/04/14 06:13:51;;;;;;;14.45;10.75;;;;;;;5.64;81.30;100844.97;5094557;28;20364;-58
2023/04/14 06:16:19;;;;;;;15.48;10.85;;;;;;;5.70;81.90;100834.16;5106286;28;20027;-58
2023/04/14 06:18:44;;;;;;;13.30;9.40;;;;;;;5.76;82.29;100837.47;5111728;28;20023;-58
2023/04/14 06:21:10;;;;;;;13.93;10.80;;;;;;;5.76;81.07;100833.03;5110203;28;20381;-58
2023/04/14 06:23:36;;;;;;;15.32;10.52;;;;;;;5.83;80.86;100831.88;5111767;28;20019;-58
2023/04/14 06:26:04;;;;;;;14.63;10.38;;;;;;;5.95;80.72;100832.28;5112657;28;20394;-59
2023/04/14 06:28:29;;;;;;;12.85;9.68;;;;;;;6.05;80.15;100825.66;5107216;28;20110;-59
2023/04/14 06:30:55;;;;;;;15.10;11.43;;;;;;;6.03;79.97;100815.19;5110189;28;20586;-58
2023/04/14 06:33:20;;;;;;;15.88;10.35;;;;;;;6.14;79.50;100818.19;5111031;28;20024;-59
2023/04/14 06:35:48;;;;;;;14.93;9.32;;;;;;;6.27;79.27;100813.22;5107843;28;20087;-58
2023/04/14 06:38:14;;;;;;;11.55;10.20;;;;;;;6.32;79.44;100807.72;5110720;28;20020;-58
2023/04/14 06:40:39;;;;;;;13.48;9.43;;;;;;;6.46;78.62;100812.34;5112269;28;20031;-58
2023/04/14 06:43:06;;;;;;;10.25;8.90;;;;;;;6.56;77.48;100809.22;5111576;28;20418;-58
2023/04/14 06:45:31;;;;;;;13.93;10.18;;;;;;;6.69;77.44;100806.00;5111930;28;20132;-58
2023/04/14 06:47:56;;;;;;;13.57;8.77;;;;;;;6.75;76.52;100789.84;5087290;28;20028;-59
2023/04/14 06:50:22;;;;;;;16.50;10.48;;;;;;;7.00;76.44;100810.66;5091192;28;20083;-58
2023/04/14 06:52:47;;;;;;;13.88;9.90;;;;;;;7.21;75.23;100806.13;5101314;28;20028;-59
2023/04/14 06:55:13;;;;;;;15.13;10.30;;;;;;;7.26;74.92;100798.78;5107555;28;20045;-59
2023/04/14 06:57:40;;;;;;;17.77;10.40;;;;;;;7.44;74.22;100795.22;5089715;28;20178;-59
2023/04/14 07:00:08;;;;;;;13.05;10.15;;;;;;;7.59;74.48;100795.34;5090797;28;20027;-59
2023/04/14 07:02:35;;;;;;;15.27;10.52;;;;;;;7.78;73.53;100801.41;5089302;28;20394;-59
2023/04/14 07:05:01;;;;;;;14.23;9.90;;;;;;;7.93;72.91;100795.31;5091572;28;20016;-58
2023/04/14 07:07:26;;;;;;;14.02;10.57;;;;;;;8.02;71.98;100796.63;5089803;28;20394;-59
2023/04/14 07:09:52;;;;;;;11.10;9.68;;;;;;;8.08;70.83;100796.28;5097167;28;20035;-59
2023/04/14 07:12:17;;;;;;;12.10;9.93;;;;;;;8.16;70.74;100793.25;5098097;28;20032;-58
2023/04/14 07:14:49;;;;;;;15.13;10.57;;;;;;;8.32;70.80;100788.78;5108654;28;20023;-59
2023/04/14 07:17:15;;;;;;;11.70;9.90;;;;;;;8.39;70.11;100778.78;5093764;28;20403;-59
2023/04/14 07:19:41;;;;;;;12.05;9.45;;;;;;;8.63;69.80;100781.84;5089864;28;20020;-58
2023/04/14 07:22:07;;;;;;;14.55;9.10;;;;;;;8.76;67.36;100788.16;5090827;28;20074;-58
2023/04/14 07:24:33;;;;;;;12.55;9.23;;;;;;;8.79;66.53;100784.47;5096049;28;20023;-59
2023/04/14 07:26:58;;;;;;;10.38;8.88;;;;;;;8.91;67.09;100785.59;5090978;28;20453;-58
2023/04/14 07:29:26;;;;;;;13.25;9.57;;;;;;;9.01;67.26;100782.31;5099622;28;20040;-58
2023/04/14 07:31:51;;;;;;;15.77;9.45;;;;;;;9.19;64.83;100787.50;5089169;28;20024;-58
2023/04/14 07:34:18;;;;;;;13.27;10.55;;;;;;;9.30;65.26;100785.09;5089563;28;20031;-58
2023/04/14 07:36:43;;;;;;;14.23;9.52;;;;;;;9.31;64.48;100776.16;5091057;28;20031;-58
2023/04/14 07:39:08;;;;;;;15.23;9.82;;;;;;;9.47;64.05;100776.09;5091026;28;20032;-58
2023/04/14 07:41:34;;;;;;;12.88;8.20;;;;;;;9.57;62.80;100779.94;5096032;28;20031;-59
2023/04/14 07:44:02;;;;;;;10.73;7.90;;;;;;;9.54;62.14;100767.69;5104842;28;20023;-58
2023/04/14 07:46:27;;;;;;;10.00;9.00;;;;;;;9.75;62.51;100776.16;5089322;28;20020;-59
2023/04/14 07:48:52;;;;;;;12.02;9.02;;;;;;;9.80;62.06;100761.75;5097088;28;20407;-58
2023/04/14 07:51:18;;;;;;;10.55;8.48;;;;;;;9.96;62.79;100759.84;5090621;28;20020;-58
2023/04/14 07:53:43;;;;;;;12.43;8.60;;;;;;;10.03;60.77;100766.50;5094583;28;20023;-59
2023/04/14 07:56:10;;;;;;;13.13;8.45;;;;;;;10.19;61.98;100775.22;5105921;28;20031;-58
2023/04/14 07:58:36;;;;;;;9.15;8.23;;;;;;;10.23;59.95;100771.44;5081271;28;20063;-58
2023/04/14 08:01:04;;;;;;;13.88;9.32;;;;;;;10.30;59.75;100771.09;5089291;28;20451;-59
2023/04/14 08:03:29;;;;;;;10.25;7.93;;;;;;;10.44;59.17;100774.56;5094794;28;20039;-59
2023/04/14 08:05:56;;;;;;;9.73;7.45;;;;;;;10.55;58.75;100781.00;5102308;28;20020;-59
2023/04/14 08:08:22;;;;;;;8.77;7.88;;;;;;;10.52;57.47;100771.41;5100147;28;20565;-59
2023/04/14 08:10:47;;;;;;;7.95;7.18;;;;;;;10.51;57.46;100761.72;5099007;28;20095;-59
2023/04/14 08:13:13;;;;;;;9.02;7.18;;;;;;;10.85;58.53;100765.72;5093148;28;20115;-59
2023/04/14 08:15:38;;;;;;;12.68;7.43;;;;;;;10.89;57.07;100769.88;5108944;28;20094;-59
2023/04/14 08:18:04;;;;;;;7.32;6.63;;;;;;;10.99;56.70;100772.78;5092488;28;20496;-59
2023/04/14 08:20:29;;;;;;;7.78;6.97;;;;;;;11.07;56.24;100780.28;5094339;28;20032;-59
2023/04/14 08:22:55;;;;;;;7.75;6.43;;;;;;;11.13;56.00;100774.53;5106206;28;20020;-59
2023/04/14 08:25:21;;;;;;;8.20;7.18;;;;;;;11.17;55.78;100775.19;5095805;28;20028;-63
2023/04/14 08:27:46;;;;;;;8.63;6.88;;;;;;;11.28;55.24;100754.03;5109209;27;20038;-59
2023/04/14 08:30:12;;;;;;;9.38;7.35;;;;;;;11.52;54.93;100760.31;5106875;28;20028;-59
2023/04/14 08:32:37;;;;;;;7.25;6.22;;;;;;;11.55;52.89;100757.44;5075691;28;20509;-59
2023/04/14 08:35:03;;;;;;;16.35;6.95;;;;;;;11.59;53.19;100771.44;5094557;28;20027;-65
2023/04/14 08:37:28;;;;;;;9.77;6.13;;;;;;;11.54;51.91;100763.75;5094643;28;20063;-58
2023/04/14 08:39:54;;;;;;;6.72;6.07;;;;;;;11.59;51.95;100771.44;5097085;28;20024;-58
2023/04/14 08:42:20;;;;;;;11.02;6.20;;;;;;;11.67;51.86;100769.06;5093455;28;20475;-59
2023/04/14 08:44:47;;;;;;;9.30;6.65;;;;;;;11.75;51.25;100765.91;5099870;28;20118;-58
2023/04/14 08:47:14;;;;;;;8.70;6.35;;;;;;;11.83;51.28;100756.41;5091671;28;20028;-58
2023/04/14 08:49:44;;;;;;;7.88;6.25;;;;;;;11.92;50.76;100759.44;5093806;28;20052;-58
2023/04/14 08:52:11;;;;;;;11.23;6.22;;;;;;;11.98;50.38;100761.66;5102619;28;20105;-58
2023/04/14 08:54:42;;;;;;;8.20;6.38;;;;;;;12.09;50.55;100759.09;5109748;28;20135;-58
2023/04/14 08:57:11;;;;;;;9.98;5.90;;;;;;;12.02;50.87;100766.66;5107410;28;20400;-59
2023/04/14 08:59:37;;;;;;;8.03;6.30;;;;;;;11.98;50.56;100775.84;5098531;28;20039;-59
2023/04/14 09:02:08;;;;;;;7.10;6.05;;;;;;;12.27;51.86;100776.44;5093818;28;20293;-59
2023/04/14 09:04:34;;;;;;;6.88;5.75;;;;;;;12.37;50.87;100768.63;5095030;28;20024;-59
2023/04/14 09:07:01;;;;;;;10.95;5.97;;;;;;;12.50;50.83;100768.63;5093490;28;20055;-59
2023/04/14 09:09:27;;;;;;;6.15;5.57;;;;;;;12.67;50.34;100762.88;5075097;28;20016;-59
2023/04/14 09:11:53;;;;;;;9.45;5.82;;;;;;;12.70;49.51;100765.31;5096083;28;20035;-59
2023/04/14 09:14:20;;;;;;;7.53;6.20;;;;;;;12.98;50.35;100762.44;5095847;28;20028;-59
2023/04/14 09:16:47;;;;;;;9.18;6.25;;;;;;;13.21;48.99;100763.38;5093063;28;20024;-59
2023/04/14 09:19:14;;;;;;;8.52;5.80;;;;;;;13.13;48.83;100763.97;5085456;28;20498;-59
2023/04/14 09:21:40;;;;;;;8.80;5.57;;;;;;;13.27;49.53;100749.59;5090624;28;20073;-59
2023/04/14 09:24:06;;;;;;;7.13;6.05;;;;;;;13.14;49.41;100761.16;5095450;28;20508;-59
2023/04/14 09:26:32;;;;;;;7.65;5.47;;;;;;;12.94;48.10;100735.97;5090767;28;20581;-59
2023/04/14 09:28:58;;;;;;;6.30;5.38;;;;;;;13.03;48.52;100754.91;5097480;28;20051;-59
2023/04/14 09:31:23;;;;;;;7.70;5.32;;;;;;;13.04;49.20;100759.31;5093883;28;20042;-59
2023/04/14 09:33:52;;;;;;;7.03;5.22;;;;;;;12.87;49.28;100757.91;5101538;28;20057;-59
2023/04/14 09:36:22;;;;;;;9.88;5.65;;;;;;;13.02;49.55;100750.56;5094221;28;20027;-59
2023/04/14 09:38:49;;;;;;;7.82;5.85;;;;;;;13.23;49.97;100748.09;5110755;28;20030;-59
2023/04/14 09:41:21;;;;;;;7.85;5.63;;;;;;;13.18;48.12;100733.28;5100729;28;20490;-59
2023/04/14 09:43:51;;;;;;;9.30;6.43;;;;;;;13.48;48.55;100742.63;5074967;28;20021;-59
2023/04/14 09:46:17;;;;;;;10.82;6.35;;;;;;;13.69;47.83;100733.91;5076480;28;20101;-59
2023/04/14 09:48:52;;;;;;;8.50;5.25;;;;;;;13.48;46.78;100742.63;5109467;28;20070;-60
2023/04/14 09:51:27;;;;;;;8.43;5.30;;;;;;;13.31;46.50;100741.22;5110700;28;20381;-59
2023/04/14 09:53:53;;;;;;;8.80;6.28;;;;;;;13.47;46.29;100735.59;5112032;28;20031;-59
2023/04/14 09:56:24;;;;;;;10.15;5.45;;;;;;;13.69;46.65;100712.53;5113083;28;20176;-59
2023/04/14 09:58:55;;;;;;;6.47;5.82;;;;;;;14.03;44.49;100724.06;5102295;28;20035;-60
2023/04/14 10:01:21;;;;;;;6.63;5.38;;;;;;;14.01;44.06;100726.88;5095534;28;20032;-59
2023/04/14 10:03:48;;;;;;;7.32;5.75;;;;;;;14.04;43.87;100715.94;5091405;28;20039;-59
2023/04/14 10:06:23;;;;;;;7.00;5.40;;;;;;;14.32;44.30;100722.59;5100911;28;20431;-59
2023/04/14 10:08:51;;;;;;;9.43;5.22;;;;;;;14.32;43.11;100719.06;5111451;28;20031;-57
2023/04/14 10:11:19;;;;;;;10.07;6.28;;;;;;;14.75;44.31;100708.41;5102342;28;20447;-62
2023/04/14 10:13:47;;;;;;;8.57;6.13;;;;;;;14.72;43.17;100714.00;5112820;28;20046;-59
2023/04/14 10:16:13;;;;;;;11.63;6.10;;;;;;;14.85;42.82;100699.59;5101062;28;20161;-60
2023/04/14 10:18:39;;;;;;;7.55;5.88;;;;;;;14.98;42.91;100706.47;5092134;28;20032;-60
2023/04/14 10:21:04;;;;;;;8.80;4.72;;;;;;;14.92;42.71;100698.97;5092374;28;20331;-60
2023/04/14 10:23:31;;;;;;;6.78;5.07;;;;;;;14.70;42.65;100701.72;5074465;28;20471;-60
2023/04/14 10:25:57;;;;;;;6.32;5.70;;;;;;;14.71;42.66;100703.44;5090955;28;20047;-59
2023/04/14 10:28:24;;;;;;;6.72;5.40;;;;;;;14.95;43.43;100701.38;5092131;28;20031;-60
2023/04/14 10:30:53;;;;;;;7.78;5.13;;;;;;;14.56;43.06;100697.53;5091888;28;20055;-60
2023/04/14 10:33:18;;;;;;;11.45;5.80;;;;;;;14.65;43.48;100687.88;5102610;28;20453;-60
2023/04/14 10:35:46;;;;;;;7.55;5.63;;;;;;;15.01;43.57;100694.66;5096048;28;20023;-60
2023/04/14 10:38:13;;;;;;;6.90;5.47;;;;;;;14.73;42.30;100680.88;5112492;28;20027;-60
2023/04/14 10:40:55;;;;;;;8.70;6.13;;;;;;;14.71;43.20;100695.41;5108571;28;20118;-60
2023/04/14 10:43:27;;;;;;;10.40;5.32;;;;;;;14.75;42.75;100684.28;5108769;28;20027;-60
2023/04/14 10:45:56;;;;;;;6.22;4.93;;;;;;;14.62;43.05;100682.75;5080962;28;20177;-60
2023/04/14 10:48:38;;;;;;;10.02;4.10;;;;;;;14.73;43.62;100688.06;5109439;28;20073;-60
2023/04/14 10:51:05;;;;;;;6.60;3.95;;;;;;;14.47;43.05;100668.78;5082911;28;20027;-60
2023/04/14 10:53:46;;;;;;;6.85;3.75;;;;;;;14.23;44.23;100667.13;5105069;28;20506;-60
2023/04/14 10:56:13;;;;;;;9.70;3.80;;;;;;;14.18;43.91;100671.19;5110937;28;20384;-60
2023/04/14 10:58:39;;;;;;;6.75;4.22;;;;;;;14.59;43.88;100673.19;5112685;28;20096;-60
2023/04/14 11:01:30;;;;;;;6.90;3.85;;;;;;;14.85;41.82;100675.50;5099244;28;20113;-59
2023/04/14 11:04:16;;;;;;;8.38;3.38;;;;;;;14.97;41.73;100666.41;5082519;28;20073;-60
2023/04/14 11:06:48;;;;;;;6.72;3.63;;;;;;;14.56;40.97;100670.75;5091693;28;20034;-60
2023/04/14 11:09:24;;;;;;;8.15;3.72;;;;;;;14.56;41.38;100669.88;5092067;28;20027;-60
2023/04/14 11:11:50;;;;;;;8.00;4.00;;;;;;;14.62;40.52;100653.31;5100643;28;20027;-60
2023/04/14 11:14:17;;;;;;;6.35;3.80;;;;;;;14.96;40.80;100664.72;5107873;28;20024;-60
2023/04/14 11:16:43;;;;;;;4.97;3.55;;;;;;;14.99;40.45;100662.63;5100737;28;20020;-60
2023/04/14 11:19:14;;;;;;;7.28;3.33;;;;;;;14.73;40.24;100635.38;5090348;28;20043;-60
2023/04/14 11:21:49;;;;;;;8.48;3.33;;;;;;;15.01;41.34;100648.28;5091456;28;20054;-60
2023/04/14 11:24:15;;;;;;;6.90;3.17;;;;;;;14.95;40.60;100655.00;5093911;28;20024;-59
2023/04/14 11:26:43;;;;;;;10.15;3.30;;;;;;;14.83;40.16;100658.72;5090994;28;20076;-60